Mitchellville, TN (37119)

12:57 AM CDT on August 29, 2016 (GMT -0500)
PIC USA Building | | Change Station

Elev 689 ft 36.68 °N, 86.57 °W | Updated 42 seconds ago

Clear
Clear
70.0 °F
Feels Like 70.0 °F
N
0.0
Wind Variable Wind from SE
Gusts 2.5 mph

Today
High -- | Low -- °F
--% Chance of Precip.
Yesterday
High -- | Low -- °F
Precip. -- in
Pressure 30.14 in
Visibility 10.0 miles
Clouds Clear
Dew Point 69 °F
Humidity 97%
Rainfall 0.00 in
Snow Depth Not available.
6:15 AM 7:17 PM
Waning Crescent, 10% visible
METAR KBWG 290553Z AUTO 03004KT 10SM CLR 22/21 A3015 RMK AO2 SLP205 T02220206 10267 20217 403500217 53003
Pressure 30.14 in
Visibility 10.0 miles
Clouds Clear
Dew Point 69 °F
Humidity 97%
Rainfall 0.00 in
Snow Depth Not available.
6:15 AM 7:17 PM
Waning Crescent, 10% visible
METAR KBWG 290553Z AUTO 03004KT 10SM CLR 22/21 A3015 RMK AO2 SLP205 T02220206 10267 20217 403500217 53003

10-Day Weather Forecast

Almanac

Astronomy

Aug. 29, 2016 Rise Set
Actual Time
Civil Twilight
Nautical Twilight
Astronomical Twilight
Moon
Length of Visible Light
Length of Day
Tomorrow will be .
, % of the Moon is Illuminated

Today's Extremes

State Highs State Lows

Community

WunderPhotos

Upload Photos

1,935,800 photos uploaded!

WunderBlog® & News

Nearby

Air Quality

  Air Quality AQ Index Pollutant
Not available.

Snow Depth

Station Depth Elevation

Earthquake Activity

City Distance Mag. Time & Date
Minimum magnitude displayed is 2.5.

Coastal Water Temperatures

Place Temperature

Stations

Nearby Weather Stations

Station Location Temp. Windchill Dew Point Humidity Wind Precip. Elev Updated Type
                   

Watches & Warnings

There are currently no watches in effect.